createdAt,value
2019-03-16T00:01:23.425Z,100096.98
2019-03-16T00:03:54.415Z,100089.65
2019-03-16T00:06:26.505Z,100088.06
2019-03-16T00:08:57.846Z,100083.81
2019-03-16T00:11:29.091Z,100081.52
2019-03-16T00:14:00.072Z,100082.23
2019-03-16T00:16:31.112Z,100076.63
2019-03-16T00:19:02.090Z,100068.35
2019-03-16T00:21:33.260Z,100072.59
2019-03-16T00:24:04.245Z,100073.69
2019-03-16T00:26:35.332Z,100067.94
2019-03-16T00:29:06.486Z,100065.15
2019-03-16T00:31:37.622Z,100058.68
2019-03-16T00:34:08.712Z,100055.41
2019-03-16T00:36:39.818Z,100062.59
2019-03-16T00:39:10.846Z,100056.98
2019-03-16T00:41:41.917Z,100060.13
2019-03-16T00:44:13.041Z,100057.23
2019-03-16T00:46:44.077Z,100056.52
2019-03-16T00:49:15.131Z,100062.23
2019-03-16T00:51:46.309Z,100061.37
2019-03-16T00:54:17.450Z,100060.86
2019-03-16T00:56:48.424Z,100055.05
2019-03-16T00:59:19.532Z,100057.00
2019-03-16T01:01:50.665Z,100061.86
2019-03-16T01:04:21.736Z,100061.05
2019-03-16T01:06:53.435Z,100060.31
2019-03-16T01:09:24.971Z,100062.98
2019-03-16T01:11:56.151Z,100058.72
2019-03-16T01:14:27.309Z,100056.88
2019-03-16T01:16:58.417Z,100062.12
2019-03-16T01:19:29.467Z,100061.05
2019-03-16T01:22:00.675Z,100064.32
2019-03-16T01:24:31.653Z,100062.95
2019-03-16T01:27:02.805Z,100061.45
2019-03-16T01:29:33.944Z,100063.67
2019-03-16T01:32:04.981Z,100054.50
2019-03-16T01:34:36.134Z,100045.52
2019-03-16T01:37:07.188Z,100051.13
2019-03-16T01:39:38.347Z,100052.61
2019-03-16T01:42:09.313Z,100054.53
2019-03-16T01:44:40.431Z,100055.79
2019-03-16T01:47:11.431Z,100061.50
2019-03-16T01:49:42.443Z,100057.75
2019-03-16T01:52:13.832Z,100059.32
2019-03-16T01:54:44.829Z,100057.82
2019-03-16T01:57:15.900Z,100056.97
2019-03-16T01:59:48.257Z,100051.86
2019-03-16T02:02:19.232Z,100051.27
2019-03-16T02:04:50.364Z,100052.37
2019-03-16T02:07:21.406Z,100040.92
2019-03-16T02:09:52.437Z,100038.27
2019-03-16T02:12:23.976Z,100036.05
2019-03-16T02:14:55.054Z,100036.30
2019-03-16T02:17:26.084Z,100037.52
2019-03-16T02:19:57.110Z,100042.41
2019-03-16T02:22:28.115Z,100033.86
2019-03-16T02:24:59.271Z,100045.19
2019-03-16T02:27:30.366Z,100036.19
2019-03-16T02:30:01.561Z,100040.80
2019-03-16T02:32:32.604Z,100037.88
2019-03-16T02:35:04.926Z,100036.77
2019-03-16T02:37:35.938Z,100040.80
2019-03-16T02:40:09.147Z,100034.95
2019-03-16T02:42:40.166Z,100034.20
2019-03-16T02:45:11.305Z,100030.41
2019-03-16T02:47:42.352Z,100028.34
2019-03-16T02:50:14.029Z,100025.30
2019-03-16T02:52:49.323Z,100037.34
2019-03-16T02:55:17.856Z,100028.48
2019-03-16T02:57:48.844Z,100031.91
2019-03-16T03:00:19.898Z,100022.98
2019-03-16T03:02:51.021Z,100020.78
2019-03-16T03:05:22.064Z,100022.36
2019-03-16T03:07:54.532Z,100022.86
2019-03-16T03:10:25.689Z,100021.14
2019-03-16T03:12:56.785Z,100024.91
2019-03-16T03:15:27.866Z,100021.48
2019-03-16T03:17:59.922Z,100021.58
2019-03-16T03:20:31.110Z,100024.97
2019-03-16T03:23:02.181Z,100022.81
2019-03-16T03:25:33.526Z,100032.03
2019-03-16T03:28:04.558Z,100032.28
2019-03-16T03:30:35.734Z,100030.84
2019-03-16T03:33:06.851Z,100029.98
2019-03-16T03:35:37.891Z,100030.14
2019-03-16T03:38:08.944Z,100032.31
2019-03-16T03:40:39.988Z,100032.97
2019-03-16T03:43:11.016Z,100027.94
2019-03-16T03:45:42.068Z,100034.19
2019-03-16T03:48:13.047Z,100037.46
2019-03-16T03:50:44.158Z,100036.73
2019-03-16T03:53:15.195Z,100030.51
2019-03-16T03:55:46.339Z,100032.92
2019-03-16T03:58:17.372Z,100034.75
2019-03-16T04:00:48.357Z,100031.34
2019-03-16T04:03:19.523Z,100029.42
2019-03-16T04:05:50.603Z,100025.88
2019-03-16T04:08:21.770Z,100019.41
2019-03-16T04:10:52.792Z,100022.56
2019-03-16T04:13:23.833Z,100025.00
2019-03-16T04:15:54.874Z,100023.09
2019-03-16T04:18:26.006Z,100029.18
2019-03-16T04:20:57.067Z,100028.28
2019-03-16T04:23:28.103Z,100027.92
2019-03-16T04:25:59.143Z,100022.36
2019-03-16T04:28:30.176Z,100023.95
2019-03-16T04:31:01.293Z,100019.58
2019-03-16T04:33:32.370Z,100018.06
2019-03-16T04:36:03.479Z,100015.78
2019-03-16T04:38:34.624Z,100018.53
2019-03-16T04:41:05.738Z,100015.55
2019-03-16T04:43:36.713Z,100014.18
2019-03-16T04:46:07.817Z,100015.24
2019-03-16T04:48:38.927Z,100012.32
2019-03-16T04:51:10.003Z,100017.44
2019-03-16T04:53:41.113Z,100012.90
2019-03-16T04:56:12.178Z,100013.16
2019-03-16T04:58:43.301Z,100008.34
2019-03-16T05:01:15.392Z,100009.79
2019-03-16T05:03:46.520Z,100006.84
2019-03-16T05:06:17.589Z,100005.26
2019-03-16T05:08:48.572Z,100007.09
2019-03-16T05:11:19.737Z,100007.16
2019-03-16T05:13:50.771Z,99996.72
2019-03-16T05:16:21.852Z,99990.64
2019-03-16T05:18:52.826Z,99985.25
2019-03-16T05:21:23.918Z,99993.66
2019-03-16T05:23:54.899Z,99986.83
2019-03-16T05:26:25.971Z,99993.11
2019-03-16T05:28:57.105Z,99999.17
2019-03-16T05:31:28.165Z,99998.11
2019-03-16T05:33:59.385Z,99993.99
2019-03-16T05:36:30.521Z,99988.47
2019-03-16T05:39:01.596Z,99990.59
2019-03-16T05:41:33.977Z,99993.07
2019-03-16T05:44:04.995Z,99990.84
2019-03-16T05:46:35.957Z,99992.34
2019-03-16T05:49:06.996Z,99983.80
2019-03-16T05:51:38.076Z,99979.78
2019-03-16T05:54:08.966Z,99984.06
2019-03-16T05:56:40.022Z,99986.73
2019-03-16T05:59:11.103Z,99980.14
2019-03-16T06:01:42.140Z,99972.45
2019-03-16T06:04:13.145Z,99973.55
2019-03-16T06:06:44.717Z,99971.08
2019-03-16T06:09:15.741Z,99974.70
2019-03-16T06:11:46.892Z,99969.83
2019-03-16T06:14:18.013Z,99970.75
2019-03-16T06:16:49.087Z,99963.45
2019-03-16T06:19:20.192Z,99952.08
2019-03-16T06:21:51.366Z,99950.23
2019-03-16T06:24:22.465Z,99949.48
2019-03-16T06:26:53.484Z,99946.86
2019-03-16T06:29:24.561Z,99947.14
2019-03-16T06:31:55.834Z,99945.32
2019-03-16T06:34:26.985Z,99947.52
2019-03-16T06:36:58.152Z,99941.92
2019-03-16T06:39:29.159Z,99941.27
2019-03-16T06:42:00.059Z,99936.48
2019-03-16T06:44:31.002Z,99939.17
2019-03-16T06:47:02.061Z,99933.84
2019-03-16T06:49:33.026Z,99934.17
2019-03-16T06:52:03.966Z,99928.60
2019-03-16T06:54:35.074Z,99932.02
2019-03-16T06:57:06.039Z,99932.38
2019-03-16T06:59:37.062Z,99928.80
2019-03-16T07:02:08.024Z,99930.05
2019-03-16T07:04:38.961Z,99926.23
2019-03-16T07:07:09.927Z,99929.11
2019-03-16T07:09:40.992Z,99926.59
2019-03-16T07:12:12.058Z,99924.76
2019-03-16T07:14:44.152Z,99926.62
2019-03-16T07:17:15.671Z,99924.94
2019-03-16T07:19:46.854Z,99922.19
2019-03-16T07:22:19.031Z,99917.29
2019-03-16T07:24:51.822Z,99914.59
2019-03-16T07:27:26.297Z,99912.61
2019-03-16T07:29:55.896Z,99914.86
2019-03-16T07:32:27.142Z,99910.10
2019-03-16T07:34:58.222Z,99901.46
2019-03-16T07:37:29.531Z,99898.72
2019-03-16T07:40:00.731Z,99899.33
2019-03-16T07:42:32.751Z,99908.77
2019-03-16T07:45:08.422Z,99905.97
2019-03-16T07:47:38.361Z,99900.22
2019-03-16T07:50:11.554Z,99898.84
2019-03-16T07:52:42.692Z,99892.83
2019-03-16T07:55:15.257Z,99899.83
2019-03-16T07:57:46.277Z,99904.73
2019-03-16T08:00:17.329Z,99904.73
2019-03-16T08:02:48.830Z,99902.66
2019-03-16T08:05:20.031Z,99892.63
2019-03-16T08:07:51.187Z,99881.71
2019-03-16T08:10:22.115Z,99881.71
2019-03-16T08:12:53.133Z,99885.41
2019-03-16T08:15:24.287Z,99875.47
2019-03-16T08:17:55.585Z,99875.47
2019-03-16T08:20:26.910Z,99876.70
2019-03-16T08:22:57.944Z,99876.36
2019-03-16T08:25:29.125Z,99877.88
2019-03-16T08:28:00.505Z,99852.77
2019-03-16T08:30:31.649Z,99859.95
2019-03-16T08:33:02.967Z,99862.38
2019-03-16T08:35:34.050Z,99851.07
2019-03-16T08:38:05.284Z,99849.01
2019-03-16T08:40:36.654Z,99842.19
2019-03-16T08:43:08.318Z,99838.39
2019-03-16T08:45:39.366Z,99845.88
2019-03-16T08:48:22.237Z,99843.89
2019-03-16T08:50:43.196Z,99848.25
2019-03-16T08:53:14.345Z,99834.03
2019-03-16T08:55:45.273Z,99846.58
2019-03-16T08:58:16.550Z,99847.25
2019-03-16T09:00:47.812Z,99844.00
2019-03-16T09:03:19.051Z,99841.44
2019-03-16T09:05:50.041Z,99826.44
2019-03-16T09:08:24.317Z,99822.97
2019-03-16T09:10:55.412Z,99819.89
2019-03-16T09:13:26.617Z,99821.27
2019-03-16T09:15:57.505Z,99817.46
2019-03-16T09:18:28.575Z,99813.71
2019-03-16T09:20:59.586Z,99813.58
2019-03-16T09:23:30.825Z,99808.38
2019-03-16T09:26:02.094Z,99806.67
2019-03-16T09:28:33.308Z,99801.77
2019-03-16T09:31:12.339Z,99798.89
2019-03-16T09:33:46.919Z,99801.63
2019-03-16T09:36:18.284Z,99793.08
2019-03-16T09:38:49.341Z,99782.44
2019-03-16T09:41:20.509Z,99791.62
2019-03-16T09:43:51.661Z,99788.27
2019-03-16T09:46:24.442Z,99781.09
2019-03-16T09:48:58.956Z,99777.47
2019-03-16T09:51:31.204Z,99780.31
2019-03-16T09:54:03.760Z,99775.89
2019-03-16T09:56:35.601Z,99774.08
2019-03-16T09:59:07.221Z,99772.08
2019-03-16T10:01:38.986Z,99770.50
2019-03-16T10:04:14.355Z,99760.23
2019-03-16T10:06:45.975Z,99758.56
2019-03-16T10:09:17.201Z,99757.00
2019-03-16T10:11:48.462Z,99751.11
2019-03-16T10:14:20.005Z,99734.80
2019-03-16T10:16:51.128Z,99741.42
2019-03-16T10:19:22.404Z,99736.16
2019-03-16T10:21:53.350Z,99729.22
2019-03-16T10:24:24.544Z,99732.09
2019-03-16T10:26:55.727Z,99721.58
2019-03-16T10:29:26.804Z,99715.69
2019-03-16T10:31:57.704Z,99708.84
2019-03-16T10:34:28.979Z,99696.59
2019-03-16T10:37:00.199Z,99683.66
2019-03-16T10:39:31.523Z,99679.11
2019-03-16T10:42:02.505Z,99668.69
2019-03-16T10:44:33.685Z,99666.95
2019-03-16T10:47:06.290Z,99658.47
2019-03-16T10:49:37.414Z,99657.59
2019-03-16T10:52:08.778Z,99660.12
2019-03-16T10:54:39.729Z,99644.69
2019-03-16T10:57:10.891Z,99642.13
2019-03-16T10:59:43.029Z,99632.58
2019-03-16T11:02:14.002Z,99633.66
2019-03-16T11:04:44.984Z,99628.22
2019-03-16T11:07:16.054Z,99626.86
2019-03-16T11:09:47.308Z,99619.02
2019-03-16T11:12:18.387Z,99622.25
2019-03-16T11:14:49.496Z,99612.81
2019-03-16T11:17:20.568Z,99608.16
2019-03-16T11:19:51.641Z,99614.72
2019-03-16T11:22:22.957Z,99606.52
2019-03-16T11:24:55.246Z,99610.11
2019-03-16T11:27:26.314Z,99600.61
2019-03-16T11:29:57.458Z,99590.77
2019-03-16T11:32:28.452Z,99584.66
2019-03-16T11:34:59.637Z,99578.55
2019-03-16T11:37:30.830Z,99588.19
2019-03-16T11:40:01.823Z,99573.28
2019-03-16T11:42:32.924Z,99585.15
2019-03-16T11:45:06.344Z,99586.97
2019-03-16T11:47:36.831Z,99584.23
2019-03-16T11:50:09.579Z,99583.64
2019-03-16T11:52:40.560Z,99576.83
2019-03-16T11:55:11.551Z,99569.28
2019-03-16T11:57:42.697Z,99560.41
2019-03-16T12:00:14.684Z,99558.08
2019-03-16T12:02:46.349Z,99559.06
2019-03-16T12:05:17.458Z,99545.94
2019-03-16T12:07:48.677Z,99550.70
2019-03-16T12:10:19.719Z,99554.83
2019-03-16T12:12:50.699Z,99547.36
2019-03-16T12:15:21.822Z,99546.94
2019-03-16T12:17:53.104Z,99533.00
2019-03-16T12:20:24.287Z,99540.60
2019-03-16T12:22:55.972Z,99537.20
2019-03-16T12:25:27.190Z,99525.09
2019-03-16T12:27:58.223Z,99527.70
2019-03-16T12:30:29.087Z,99522.54
2019-03-16T12:33:00.199Z,99516.64
2019-03-16T12:35:31.237Z,99523.41
2019-03-16T12:38:02.250Z,99520.25
2019-03-16T12:40:33.237Z,99525.81
2019-03-16T12:43:04.109Z,99526.02
2019-03-16T12:45:35.091Z,99523.02
2019-03-16T12:48:06.051Z,99520.61
2019-03-16T12:50:36.913Z,99517.09
2019-03-16T12:53:07.816Z,99509.08
2019-03-16T12:55:38.834Z,99495.66
2019-03-16T12:58:09.795Z,99508.57
2019-03-16T13:00:40.782Z,99505.64
2019-03-16T13:03:11.778Z,99493.45
2019-03-16T13:05:42.764Z,99491.53
2019-03-16T13:08:13.758Z,99485.83
2019-03-16T13:10:44.757Z,99498.33
2019-03-16T13:13:15.617Z,99489.70
2019-03-16T13:15:46.623Z,99484.95
2019-03-16T13:18:17.616Z,99486.29
2019-03-16T13:20:48.711Z,99478.76
2019-03-16T13:23:19.604Z,99482.78
2019-03-16T13:25:50.679Z,99481.56
2019-03-16T13:28:21.677Z,99472.50
2019-03-16T13:30:52.709Z,99470.65
2019-03-16T13:33:23.746Z,99463.42
2019-03-16T13:35:54.735Z,99455.44
2019-03-16T13:38:25.640Z,99459.70
2019-03-16T13:40:56.726Z,99460.98
2019-03-16T13:43:27.651Z,99453.83
2019-03-16T13:45:58.562Z,99448.28
2019-03-16T13:48:29.652Z,99437.09
2019-03-16T13:51:00.535Z,99431.05
2019-03-16T13:53:32.694Z,99427.14
2019-03-16T13:56:04.931Z,99418.77
2019-03-16T13:58:36.136Z,99433.90
2019-03-16T14:01:07.137Z,99429.50
2019-03-16T14:03:39.266Z,99423.41
2019-03-16T14:06:11.603Z,99423.98
2019-03-16T14:08:42.545Z,99433.38
2019-03-16T14:11:13.612Z,99421.45
2019-03-16T14:13:44.643Z,99418.77
2019-03-16T14:16:15.853Z,99425.39
2019-03-16T14:18:46.824Z,99424.05
2019-03-16T14:21:17.749Z,99415.72
2019-03-16T14:23:49.379Z,99405.66
2019-03-16T14:26:20.293Z,99404.83
2019-03-16T14:28:51.177Z,99411.81
2019-03-16T14:31:22.113Z,99406.74
2019-03-16T14:33:53.291Z,99401.45
2019-03-16T14:36:24.326Z,99403.89
2019-03-16T14:38:55.276Z,99401.41
2019-03-16T14:41:26.426Z,99408.13
2019-03-16T14:43:57.630Z,99398.86
2019-03-16T14:46:28.591Z,99404.09
2019-03-16T14:49:00.085Z,99388.58
2019-03-16T14:51:31.569Z,99400.63
2019-03-16T14:54:02.577Z,99389.64
2019-03-16T14:56:33.471Z,99390.70
2019-03-16T14:59:04.413Z,99385.10
2019-03-16T15:01:35.547Z,99379.01
2019-03-16T15:04:06.706Z,99376.63
2019-03-16T15:06:37.731Z,99372.36
2019-03-16T15:09:08.725Z,99371.16
2019-03-16T15:11:41.421Z,99377.64
2019-03-16T15:14:21.601Z,99377.64
2019-03-16T15:16:45.492Z,99365.60
2019-03-16T15:19:16.509Z,99368.98
2019-03-16T15:21:47.472Z,99363.92
2019-03-16T15:24:18.540Z,99367.86
2019-03-16T15:26:49.562Z,99367.90
2019-03-16T15:29:20.658Z,99368.44
2019-03-16T15:31:51.746Z,99354.16
2019-03-16T15:34:22.847Z,99363.50
2019-03-16T15:36:53.929Z,99364.86
2019-03-16T15:39:25.040Z,99366.66
2019-03-16T15:41:56.094Z,99372.14
2019-03-16T15:44:26.957Z,99363.72
2019-03-16T15:46:57.942Z,99364.92
2019-03-16T15:49:28.929Z,99366.28
2019-03-16T15:52:00.568Z,99365.12
2019-03-16T15:54:31.513Z,99367.34
2019-03-16T15:57:02.505Z,99371.55
2019-03-16T15:59:33.447Z,99370.38
2019-03-16T16:02:05.490Z,99368.35
2019-03-16T16:04:36.615Z,99369.19
2019-03-16T16:07:07.896Z,99362.75
2019-03-16T16:09:38.843Z,99363.23
2019-03-16T16:12:10.892Z,99364.74
2019-03-16T16:14:42.074Z,99363.73
2019-03-16T16:17:13.173Z,99361.69
2019-03-16T16:19:44.255Z,99364.69
2019-03-16T16:22:17.298Z,99365.89
2019-03-16T16:24:48.459Z,99360.00
2019-03-16T16:27:20.029Z,99354.20
2019-03-16T16:29:51.257Z,99345.94
2019-03-16T16:32:22.364Z,99347.14
2019-03-16T16:34:53.510Z,99356.28
2019-03-16T16:37:24.766Z,99350.56
2019-03-16T16:39:55.803Z,99355.16
2019-03-16T16:42:27.154Z,99353.08
2019-03-16T16:44:58.297Z,99350.19
2019-03-16T16:47:29.453Z,99351.49
2019-03-16T16:50:00.466Z,99348.98
2019-03-16T16:52:31.672Z,99356.08
2019-03-16T16:55:02.807Z,99360.78
2019-03-16T16:57:34.671Z,99358.02
2019-03-16T17:00:17.919Z,99361.73
2019-03-16T17:02:48.938Z,99355.96
2019-03-16T17:05:19.929Z,99361.34
2019-03-16T17:07:50.994Z,99377.92
2019-03-16T17:10:22.024Z,99366.36
2019-03-16T17:12:52.984Z,99364.46
2019-03-16T17:15:24.542Z,99371.41
2019-03-16T17:17:55.568Z,99375.16
2019-03-16T17:20:26.500Z,99375.23
2019-03-16T17:22:57.431Z,99383.25
2019-03-16T17:25:28.301Z,99377.84
2019-03-16T17:27:59.494Z,99384.80
2019-03-16T17:30:34.464Z,99386.88
2019-03-16T17:33:05.399Z,99395.72
2019-03-16T17:35:36.442Z,99409.66
2019-03-16T17:38:07.479Z,99403.80
2019-03-16T17:40:38.420Z,99426.38
2019-03-16T17:43:10.193Z,99426.19
2019-03-16T17:45:41.205Z,99433.92
2019-03-16T17:48:12.423Z,99442.28
2019-03-16T17:50:43.393Z,99442.28
2019-03-16T17:53:14.341Z,99463.95
2019-03-16T17:55:46.388Z,99463.95
2019-03-16T17:58:17.412Z,99471.74
2019-03-16T18:00:48.555Z,99471.74
2019-03-16T18:03:19.843Z,99472.70
2019-03-16T18:05:50.954Z,99478.27
2019-03-16T18:08:21.923Z,99464.78
2019-03-16T18:10:52.810Z,99467.03
2019-03-16T18:13:23.881Z,99467.03
2019-03-16T18:15:54.902Z,99468.34
2019-03-16T18:18:25.885Z,99471.20
2019-03-16T18:20:56.894Z,99463.59
2019-03-16T18:23:28.227Z,99472.02
2019-03-16T18:25:59.277Z,99471.85
2019-03-16T18:28:30.246Z,99468.80
2019-03-16T18:31:01.300Z,99473.95
2019-03-16T18:33:32.447Z,99463.66
2019-03-16T18:36:03.592Z,99472.63
2019-03-16T18:38:34.797Z,99474.84
2019-03-16T18:41:05.784Z,99472.79
2019-03-16T18:43:36.876Z,99468.75
2019-03-16T18:46:08.733Z,99470.22
2019-03-16T18:48:39.902Z,99463.42
2019-03-16T18:51:11.159Z,99463.59
2019-03-16T18:53:42.120Z,99463.72
2019-03-16T18:56:13.062Z,99461.30
2019-03-16T18:58:43.975Z,99460.79
2019-03-16T19:01:15.027Z,99463.83
2019-03-16T19:03:45.983Z,99460.55
2019-03-16T19:06:17.019Z,99464.06
2019-03-16T19:08:48.034Z,99450.41
2019-03-16T19:11:19.051Z,99445.48
2019-03-16T19:13:50.196Z,99452.36
2019-03-16T19:16:21.074Z,99443.22
2019-03-16T19:18:52.175Z,99444.89
2019-03-16T19:21:23.373Z,99449.05
2019-03-16T19:23:54.554Z,99447.48
2019-03-16T19:26:25.503Z,99444.80
2019-03-16T19:28:56.621Z,99448.78
2019-03-16T19:31:27.627Z,99449.38
2019-03-16T19:33:58.708Z,99439.95
2019-03-16T19:36:29.766Z,99449.00
2019-03-16T19:39:01.925Z,99454.86
2019-03-16T19:41:34.153Z,99448.23
2019-03-16T19:44:05.328Z,99442.21
2019-03-16T19:46:36.394Z,99448.05
2019-03-16T19:49:07.629Z,99451.47
2019-03-16T19:51:38.685Z,99455.15
2019-03-16T19:54:09.552Z,99449.12
2019-03-16T19:56:40.598Z,99443.97
2019-03-16T19:59:11.630Z,99441.61
2019-03-16T20:01:42.501Z,99441.09
2019-03-16T20:04:13.780Z,99436.89
2019-03-16T20:06:45.865Z,99437.95
2019-03-16T20:09:16.876Z,99436.23
2019-03-16T20:11:48.045Z,99437.57
2019-03-16T20:14:19.124Z,99444.41
2019-03-16T20:16:50.101Z,99436.44
2019-03-16T20:19:21.035Z,99438.11
2019-03-16T20:21:51.945Z,99436.36
2019-03-16T20:24:22.996Z,99436.25
2019-03-16T20:26:53.885Z,99427.83
2019-03-16T20:29:24.853Z,99424.66
2019-03-16T20:31:55.857Z,99423.91
2019-03-16T20:34:32.972Z,99431.17
2019-03-16T20:37:03.970Z,99422.45
2019-03-16T20:39:35.070Z,99425.34
2019-03-16T20:42:06.213Z,99431.31
2019-03-16T20:44:37.509Z,99420.91
2019-03-16T20:47:08.501Z,99424.66
2019-03-16T20:49:39.809Z,99425.36
2019-03-16T20:52:10.969Z,99425.20
2019-03-16T20:54:42.011Z,99432.46
2019-03-16T20:57:12.968Z,99425.03
2019-03-16T20:59:44.305Z,99429.94
2019-03-16T21:02:15.358Z,99423.15
2019-03-16T21:04:46.340Z,99420.51
2019-03-16T21:07:17.438Z,99421.91
2019-03-16T21:09:48.538Z,99429.18
2019-03-16T21:12:19.626Z,99428.97
2019-03-16T21:14:50.761Z,99432.60
2019-03-16T21:17:21.859Z,99434.05
2019-03-16T21:19:52.857Z,99439.64
2019-03-16T21:22:35.298Z,99432.27
2019-03-16T21:24:56.487Z,99441.34
2019-03-16T21:27:27.629Z,99441.61
2019-03-16T21:29:58.624Z,99449.23
2019-03-16T21:32:29.493Z,99443.97
2019-03-16T21:35:00.571Z,99447.47
2019-03-16T21:37:31.578Z,99454.71
2019-03-16T21:40:03.098Z,99454.36
2019-03-16T21:42:34.247Z,99453.84
2019-03-16T21:45:07.705Z,99455.16
2019-03-16T21:47:38.631Z,99454.30
2019-03-16T21:50:13.942Z,99458.05
2019-03-16T21:52:45.265Z,99463.22
2019-03-16T21:55:26.760Z,99457.28
2019-03-16T21:57:57.775Z,99464.86
2019-03-16T22:00:28.710Z,99466.39
2019-03-16T22:02:59.592Z,99469.66
2019-03-16T22:05:30.592Z,99475.24
2019-03-16T22:08:01.591Z,99477.84
2019-03-16T22:10:32.570Z,99477.58
2019-03-16T22:13:03.573Z,99480.30
2019-03-16T22:15:35.043Z,99485.59
2019-03-16T22:18:05.951Z,99483.77
2019-03-16T22:20:36.876Z,99480.17
2019-03-16T22:23:07.846Z,99481.20
2019-03-16T22:25:38.827Z,99484.20
2019-03-16T22:28:10.359Z,99479.29
2019-03-16T22:30:41.521Z,99480.69
2019-03-16T22:33:12.534Z,99489.56
2019-03-16T22:35:43.418Z,99483.03
2019-03-16T22:38:14.485Z,99490.64
2019-03-16T22:40:45.586Z,99492.98
2019-03-16T22:43:17.180Z,99500.41
2019-03-16T22:45:49.247Z,99501.00
2019-03-16T22:48:20.758Z,99502.56
2019-03-16T22:50:51.896Z,99503.08
2019-03-16T22:53:22.786Z,99501.03
2019-03-16T22:55:53.881Z,99501.89
2019-03-16T22:58:24.830Z,99504.62
2019-03-16T23:00:56.029Z,99507.95
2019-03-16T23:03:27.059Z,99513.66
2019-03-16T23:05:58.044Z,99506.83
2019-03-16T23:08:28.984Z,99508.02
2019-03-16T23:11:00.095Z,99508.17
2019-03-16T23:13:31.192Z,99509.81
2019-03-16T23:16:02.383Z,99516.63
2019-03-16T23:18:36.195Z,99505.96
2019-03-16T23:21:07.268Z,99514.84
2019-03-16T23:23:38.127Z,99514.93
2019-03-16T23:26:09.271Z,99515.19
2019-03-16T23:28:40.414Z,99515.83
2019-03-16T23:31:12.632Z,99523.19
2019-03-16T23:33:43.839Z,99528.03
2019-03-16T23:36:14.946Z,99530.72
2019-03-16T23:38:45.819Z,99528.47
2019-03-16T23:41:16.929Z,99529.99
2019-03-16T23:43:48.102Z,99525.88
2019-03-16T23:46:19.107Z,99526.41
2019-03-16T23:48:50.081Z,99526.56
2019-03-16T23:51:21.283Z,99532.42
2019-03-16T23:53:52.200Z,99531.70
2019-03-16T23:56:23.119Z,99530.59
2019-03-16T23:58:55.205Z,99527.00
